sensor_id;sensor_type;location;lat;lon;timestamp;P1;durP1;ratioP1;P2;durP2;ratioP2
21675;SDS011;10999;51.332;9.458;2022-10-29T00:02:04;10.88;;;3.47;;
21675;SDS011;10999;51.332;9.458;2022-10-29T00:04:31;11.65;;;4.35;;
21675;SDS011;10999;51.332;9.458;2022-10-29T00:06:57;14.18;;;4.30;;
21675;SDS011;10999;51.332;9.458;2022-10-29T00:09:24;13.98;;;4.68;;
21675;SDS011;10999;51.332;9.458;2022-10-29T00:11:51;11.07;;;4.30;;
21675;SDS011;10999;51.332;9.458;2022-10-29T00:14:17;12.18;;;4.60;;
21675;SDS011;10999;51.332;9.458;2022-10-29T00:16:44;8.05;;;3.60;;
21675;SDS011;10999;51.332;9.458;2022-10-29T00:19:10;12.93;;;3.85;;
21675;SDS011;10999;51.332;9.458;2022-10-29T00:21:37;8.98;;;3.38;;
21675;SDS011;10999;51.332;9.458;2022-10-29T00:24:05;14.70;;;4.53;;
21675;SDS011;10999;51.332;9.458;2022-10-29T00:26:34;12.60;;;3.85;;
21675;SDS011;10999;51.332;9.458;2022-10-29T00:29:01;11.68;;;5.13;;
21675;SDS011;10999;51.332;9.458;2022-10-29T00:31:28;12.32;;;3.80;;
21675;SDS011;10999;51.332;9.458;2022-10-29T00:33:56;9.10;;;3.70;;
21675;SDS011;10999;51.332;9.458;2022-10-29T00:36:23;11.88;;;4.65;;
21675;SDS011;10999;51.332;9.458;2022-10-29T00:38:52;9.93;;;3.72;;
21675;SDS011;10999;51.332;9.458;2022-10-29T00:41:20;10.13;;;3.58;;
21675;SDS011;10999;51.332;9.458;2022-10-29T00:43:49;9.90;;;3.42;;
21675;SDS011;10999;51.332;9.458;2022-10-29T00:46:29;10.30;;;3.78;;
21675;SDS011;10999;51.332;9.458;2022-10-29T00:48:59;10.23;;;4.07;;
21675;SDS011;10999;51.332;9.458;2022-10-29T00:51:26;9.85;;;3.47;;
21675;SDS011;10999;51.332;9.458;2022-10-29T00:53:57;10.38;;;3.88;;
21675;SDS011;10999;51.332;9.458;2022-10-29T00:56:27;9.82;;;4.07;;
21675;SDS011;10999;51.332;9.458;2022-10-29T00:58:57;8.80;;;3.75;;
21675;SDS011;10999;51.332;9.458;2022-10-29T01:01:24;13.27;;;3.90;;
21675;SDS011;10999;51.332;9.458;2022-10-29T01:03:51;10.05;;;3.85;;
21675;SDS011;10999;51.332;9.458;2022-10-29T01:06:19;9.80;;;3.60;;
21675;SDS011;10999;51.332;9.458;2022-10-29T01:08:46;10.50;;;3.63;;
21675;SDS011;10999;51.332;9.458;2022-10-29T01:13:55;10.35;;;3.25;;
21675;SDS011;10999;51.332;9.458;2022-10-29T01:16:36;11.70;;;3.88;;
21675;SDS011;10999;51.332;9.458;2022-10-29T01:22:23;7.57;;;3.30;;
21675;SDS011;10999;51.332;9.458;2022-10-29T01:25:25;11.35;;;3.72;;
21675;SDS011;10999;51.332;9.458;2022-10-29T01:28:31;11.18;;;4.15;;
21675;SDS011;10999;51.332;9.458;2022-10-29T01:31:11;9.30;;;3.22;;
21675;SDS011;10999;51.332;9.458;2022-10-29T01:33:57;10.00;;;3.95;;
21675;SDS011;10999;51.332;9.458;2022-10-29T01:36:37;11.40;;;3.70;;
21675;SDS011;10999;51.332;9.458;2022-10-29T01:39:57;11.50;;;3.90;;
21675;SDS011;10999;51.332;9.458;2022-10-29T01:42:11;10.93;;;3.92;;
21675;SDS011;10999;51.332;9.458;2022-10-29T01:47:17;13.93;;;4.55;;
21675;SDS011;10999;51.332;9.458;2022-10-29T01:49:46;11.98;;;4.18;;
21675;SDS011;10999;51.332;9.458;2022-10-29T01:52:18;10.10;;;4.32;;
21675;SDS011;10999;51.332;9.458;2022-10-29T01:54:47;11.98;;;4.90;;
21675;SDS011;10999;51.332;9.458;2022-10-29T02:02:44;17.92;;;4.85;;
21675;SDS011;10999;51.332;9.458;2022-10-29T02:05:31;11.80;;;4.13;;
21675;SDS011;10999;51.332;9.458;2022-10-29T02:08:30;10.00;;;4.22;;
21675;SDS011;10999;51.332;9.458;2022-10-29T02:14:17;11.88;;;4.38;;
21675;SDS011;10999;51.332;9.458;2022-10-29T02:16:49;12.82;;;4.32;;
21675;SDS011;10999;51.332;9.458;2022-10-29T02:19:16;14.18;;;4.28;;
21675;SDS011;10999;51.332;9.458;2022-10-29T02:21:42;10.48;;;3.78;;
21675;SDS011;10999;51.332;9.458;2022-10-29T02:24:10;10.13;;;4.00;;
21675;SDS011;10999;51.332;9.458;2022-10-29T02:26:36;14.35;;;4.07;;
21675;SDS011;10999;51.332;9.458;2022-10-29T02:29:03;12.80;;;4.28;;
21675;SDS011;10999;51.332;9.458;2022-10-29T02:31:30;9.10;;;3.83;;
21675;SDS011;10999;51.332;9.458;2022-10-29T02:33:56;12.25;;;3.65;;
21675;SDS011;10999;51.332;9.458;2022-10-29T02:36:23;9.88;;;3.88;;
21675;SDS011;10999;51.332;9.458;2022-10-29T02:38:50;10.15;;;3.63;;
21675;SDS011;10999;51.332;9.458;2022-10-29T02:41:16;12.80;;;3.95;;
21675;SDS011;10999;51.332;9.458;2022-10-29T02:43:43;9.80;;;3.05;;
21675;SDS011;10999;51.332;9.458;2022-10-29T02:46:10;11.15;;;4.05;;
21675;SDS011;10999;51.332;9.458;2022-10-29T02:48:41;14.18;;;4.60;;
21675;SDS011;10999;51.332;9.458;2022-10-29T02:51:08;13.57;;;4.53;;
21675;SDS011;10999;51.332;9.458;2022-10-29T02:53:35;10.63;;;3.72;;
21675;SDS011;10999;51.332;9.458;2022-10-29T02:56:02;12.48;;;3.63;;
21675;SDS011;10999;51.332;9.458;2022-10-29T02:58:29;16.80;;;5.30;;
21675;SDS011;10999;51.332;9.458;2022-10-29T03:00:56;10.93;;;4.60;;
21675;SDS011;10999;51.332;9.458;2022-10-29T03:03:24;10.40;;;4.28;;
21675;SDS011;10999;51.332;9.458;2022-10-29T03:05:51;10.50;;;4.13;;
21675;SDS011;10999;51.332;9.458;2022-10-29T03:08:18;13.30;;;4.47;;
21675;SDS011;10999;51.332;9.458;2022-10-29T03:10:45;11.13;;;4.05;;
21675;SDS011;10999;51.332;9.458;2022-10-29T03:13:12;15.63;;;5.38;;
21675;SDS011;10999;51.332;9.458;2022-10-29T03:15:42;15.55;;;5.95;;
21675;SDS011;10999;51.332;9.458;2022-10-29T03:18:10;10.38;;;4.47;;
21675;SDS011;10999;51.332;9.458;2022-10-29T03:20:37;13.45;;;4.47;;
21675;SDS011;10999;51.332;9.458;2022-10-29T03:23:03;16.98;;;4.45;;
21675;SDS011;10999;51.332;9.458;2022-10-29T03:25:30;12.05;;;4.70;;
21675;SDS011;10999;51.332;9.458;2022-10-29T03:27:57;11.23;;;4.75;;
21675;SDS011;10999;51.332;9.458;2022-10-29T03:30:24;16.90;;;5.72;;
21675;SDS011;10999;51.332;9.458;2022-10-29T03:32:50;10.60;;;4.18;;
21675;SDS011;10999;51.332;9.458;2022-10-29T03:35:17;11.23;;;4.50;;
21675;SDS011;10999;51.332;9.458;2022-10-29T03:37:44;11.35;;;4.40;;
21675;SDS011;10999;51.332;9.458;2022-10-29T03:40:18;9.43;;;4.03;;
21675;SDS011;10999;51.332;9.458;2022-10-29T03:42:45;13.15;;;4.20;;
21675;SDS011;10999;51.332;9.458;2022-10-29T03:45:12;10.88;;;5.05;;
21675;SDS011;10999;51.332;9.458;2022-10-29T03:47:38;12.70;;;5.40;;
21675;SDS011;10999;51.332;9.458;2022-10-29T03:50:05;11.30;;;3.60;;
21675;SDS011;10999;51.332;9.458;2022-10-29T03:52:32;11.32;;;4.32;;
21675;SDS011;10999;51.332;9.458;2022-10-29T03:54:59;9.57;;;3.90;;
21675;SDS011;10999;51.332;9.458;2022-10-29T03:57:25;10.13;;;3.80;;
21675;SDS011;10999;51.332;9.458;2022-10-29T03:59:52;9.57;;;4.05;;
21675;SDS011;10999;51.332;9.458;2022-10-29T04:02:18;9.65;;;4.10;;
21675;SDS011;10999;51.332;9.458;2022-10-29T04:04:45;10.98;;;4.28;;
21675;SDS011;10999;51.332;9.458;2022-10-29T04:07:12;9.45;;;3.42;;
21675;SDS011;10999;51.332;9.458;2022-10-29T04:09:39;7.68;;;3.30;;
21675;SDS011;10999;51.332;9.458;2022-10-29T04:12:06;13.93;;;4.07;;
21675;SDS011;10999;51.332;9.458;2022-10-29T04:14:33;10.55;;;3.80;;
21675;SDS011;10999;51.332;9.458;2022-10-29T04:17:00;10.93;;;3.58;;
21675;SDS011;10999;51.332;9.458;2022-10-29T04:19:26;9.43;;;3.22;;
21675;SDS011;10999;51.332;9.458;2022-10-29T04:21:53;11.70;;;3.75;;
21675;SDS011;10999;51.332;9.458;2022-10-29T04:24:40;11.50;;;4.07;;
21675;SDS011;10999;51.332;9.458;2022-10-29T04:27:26;7.40;;;3.40;;
21675;SDS011;10999;51.332;9.458;2022-10-29T04:30:13;9.15;;;3.58;;
21675;SDS011;10999;51.332;9.458;2022-10-29T04:32:40;7.65;;;3.58;;
21675;SDS011;10999;51.332;9.458;2022-10-29T04:35:06;9.60;;;3.80;;
21675;SDS011;10999;51.332;9.458;2022-10-29T04:37:33;9.10;;;3.97;;
21675;SDS011;10999;51.332;9.458;2022-10-29T04:40:00;10.27;;;3.85;;
21675;SDS011;10999;51.332;9.458;2022-10-29T04:42:27;10.25;;;4.10;;
21675;SDS011;10999;51.332;9.458;2022-10-29T04:44:53;8.55;;;3.25;;
21675;SDS011;10999;51.332;9.458;2022-10-29T04:47:20;10.13;;;4.13;;
21675;SDS011;10999;51.332;9.458;2022-10-29T04:49:46;9.80;;;3.95;;
21675;SDS011;10999;51.332;9.458;2022-10-29T04:52:13;10.68;;;4.13;;
21675;SDS011;10999;51.332;9.458;2022-10-29T04:54:39;8.50;;;3.83;;
21675;SDS011;10999;51.332;9.458;2022-10-29T04:57:06;13.45;;;4.60;;
21675;SDS011;10999;51.332;9.458;2022-10-29T04:59:33;12.65;;;4.13;;
21675;SDS011;10999;51.332;9.458;2022-10-29T05:01:59;12.07;;;4.20;;
21675;SDS011;10999;51.332;9.458;2022-10-29T05:04:26;11.50;;;3.83;;
21675;SDS011;10999;51.332;9.458;2022-10-29T05:06:54;10.40;;;4.20;;
21675;SDS011;10999;51.332;9.458;2022-10-29T05:09:21;10.93;;;4.00;;
21675;SDS011;10999;51.332;9.458;2022-10-29T05:11:48;10.73;;;4.00;;
21675;SDS011;10999;51.332;9.458;2022-10-29T05:14:14;14.68;;;5.25;;
21675;SDS011;10999;51.332;9.458;2022-10-29T05:16:41;9.85;;;3.75;;
21675;SDS011;10999;51.332;9.458;2022-10-29T05:19:07;9.32;;;3.60;;
21675;SDS011;10999;51.332;9.458;2022-10-29T05:21:34;9.63;;;3.92;;
21675;SDS011;10999;51.332;9.458;2022-10-29T05:24:01;11.18;;;4.30;;
21675;SDS011;10999;51.332;9.458;2022-10-29T05:26:29;8.70;;;3.97;;
21675;SDS011;10999;51.332;9.458;2022-10-29T05:28:57;9.38;;;3.97;;
21675;SDS011;10999;51.332;9.458;2022-10-29T05:31:24;11.32;;;4.15;;
21675;SDS011;10999;51.332;9.458;2022-10-29T05:33:50;9.52;;;4.25;;
21675;SDS011;10999;51.332;9.458;2022-10-29T05:36:21;9.85;;;4.45;;
21675;SDS011;10999;51.332;9.458;2022-10-29T05:38:47;10.73;;;4.32;;
21675;SDS011;10999;51.332;9.458;2022-10-29T05:41:14;9.68;;;3.53;;
21675;SDS011;10999;51.332;9.458;2022-10-29T05:43:41;10.55;;;4.00;;
21675;SDS011;10999;51.332;9.458;2022-10-29T05:46:07;10.48;;;4.47;;
21675;SDS011;10999;51.332;9.458;2022-10-29T05:48:34;11.35;;;4.65;;
21675;SDS011;10999;51.332;9.458;2022-10-29T05:51:00;11.32;;;4.65;;
21675;SDS011;10999;51.332;9.458;2022-10-29T05:53:27;10.88;;;4.32;;
21675;SDS011;10999;51.332;9.458;2022-10-29T05:55:54;11.43;;;4.30;;
21675;SDS011;10999;51.332;9.458;2022-10-29T05:58:20;11.90;;;4.70;;
21675;SDS011;10999;51.332;9.458;2022-10-29T06:00:47;10.88;;;4.00;;
21675;SDS011;10999;51.332;9.458;2022-10-29T06:03:15;10.15;;;4.18;;
21675;SDS011;10999;51.332;9.458;2022-10-29T06:05:47;8.65;;;4.03;;
21675;SDS011;10999;51.332;9.458;2022-10-29T06:08:15;11.27;;;4.50;;
21675;SDS011;10999;51.332;9.458;2022-10-29T06:10:42;8.70;;;4.38;;
21675;SDS011;10999;51.332;9.458;2022-10-29T06:13:14;9.30;;;4.18;;
21675;SDS011;10999;51.332;9.458;2022-10-29T06:15:43;12.80;;;4.88;;
21675;SDS011;10999;51.332;9.458;2022-10-29T06:18:10;11.82;;;4.78;;
21675;SDS011;10999;51.332;9.458;2022-10-29T06:20:37;12.68;;;5.15;;
21675;SDS011;10999;51.332;9.458;2022-10-29T06:23:05;10.52;;;4.47;;
21675;SDS011;10999;51.332;9.458;2022-10-29T06:25:32;11.77;;;4.22;;
21675;SDS011;10999;51.332;9.458;2022-10-29T06:30:26;14.18;;;5.00;;
21675;SDS011;10999;51.332;9.458;2022-10-29T06:32:54;11.00;;;4.75;;
21675;SDS011;10999;51.332;9.458;2022-10-29T06:35:21;13.18;;;5.00;;
21675;SDS011;10999;51.332;9.458;2022-10-29T06:37:48;13.02;;;5.57;;
21675;SDS011;10999;51.332;9.458;2022-10-29T06:40:14;11.07;;;4.18;;
21675;SDS011;10999;51.332;9.458;2022-10-29T06:42:41;13.95;;;4.93;;
21675;SDS011;10999;51.332;9.458;2022-10-29T06:45:08;8.55;;;3.75;;
21675;SDS011;10999;51.332;9.458;2022-10-29T06:47:39;16.33;;;5.70;;
21675;SDS011;10999;51.332;9.458;2022-10-29T06:50:06;10.63;;;5.22;;
21675;SDS011;10999;51.332;9.458;2022-10-29T06:52:34;8.68;;;4.32;;
21675;SDS011;10999;51.332;9.458;2022-10-29T06:55:01;9.63;;;4.28;;
21675;SDS011;10999;51.332;9.458;2022-10-29T06:57:28;15.00;;;5.38;;
21675;SDS011;10999;51.332;9.458;2022-10-29T06:59:55;12.68;;;5.22;;
21675;SDS011;10999;51.332;9.458;2022-10-29T07:02:22;10.98;;;4.93;;
21675;SDS011;10999;51.332;9.458;2022-10-29T07:04:49;16.17;;;6.80;;
21675;SDS011;10999;51.332;9.458;2022-10-29T07:07:15;12.63;;;5.00;;
21675;SDS011;10999;51.332;9.458;2022-10-29T07:09:43;12.85;;;4.97;;
21675;SDS011;10999;51.332;9.458;2022-10-29T07:12:09;12.73;;;5.22;;
21675;SDS011;10999;51.332;9.458;2022-10-29T07:14:36;11.15;;;4.88;;
21675;SDS011;10999;51.332;9.458;2022-10-29T07:17:03;11.02;;;4.80;;
21675;SDS011;10999;51.332;9.458;2022-10-29T07:19:29;11.68;;;4.85;;
21675;SDS011;10999;51.332;9.458;2022-10-29T07:21:56;12.60;;;4.72;;
21675;SDS011;10999;51.332;9.458;2022-10-29T07:24:22;11.60;;;5.65;;
21675;SDS011;10999;51.332;9.458;2022-10-29T07:26:49;13.27;;;5.25;;
21675;SDS011;10999;51.332;9.458;2022-10-29T07:29:16;11.35;;;5.25;;
21675;SDS011;10999;51.332;9.458;2022-10-29T07:31:42;12.93;;;5.00;;
21675;SDS011;10999;51.332;9.458;2022-10-29T07:34:09;10.10;;;4.68;;
21675;SDS011;10999;51.332;9.458;2022-10-29T07:36:35;12.95;;;4.97;;
21675;SDS011;10999;51.332;9.458;2022-10-29T07:39:02;13.48;;;5.57;;
21675;SDS011;10999;51.332;9.458;2022-10-29T07:41:29;12.93;;;5.55;;
21675;SDS011;10999;51.332;9.458;2022-10-29T07:43:57;14.00;;;5.93;;
21675;SDS011;10999;51.332;9.458;2022-10-29T07:46:23;13.68;;;5.53;;
21675;SDS011;10999;51.332;9.458;2022-10-29T07:48:57;13.38;;;6.30;;
21675;SDS011;10999;51.332;9.458;2022-10-29T07:51:25;15.00;;;5.68;;
21675;SDS011;10999;51.332;9.458;2022-10-29T07:53:51;13.45;;;6.65;;
21675;SDS011;10999;51.332;9.458;2022-10-29T07:56:18;14.90;;;6.45;;
21675;SDS011;10999;51.332;9.458;2022-10-29T07:58:44;13.23;;;6.13;;
21675;SDS011;10999;51.332;9.458;2022-10-29T08:01:11;16.02;;;7.00;;
21675;SDS011;10999;51.332;9.458;2022-10-29T08:03:38;14.15;;;6.32;;
21675;SDS011;10999;51.332;9.458;2022-10-29T08:06:04;16.52;;;6.20;;
21675;SDS011;10999;51.332;9.458;2022-10-29T08:08:31;13.80;;;6.35;;
21675;SDS011;10999;51.332;9.458;2022-10-29T08:11:00;12.20;;;5.95;;
21675;SDS011;10999;51.332;9.458;2022-10-29T08:13:28;16.98;;;6.35;;
21675;SDS011;10999;51.332;9.458;2022-10-29T08:15:55;12.80;;;6.07;;
21675;SDS011;10999;51.332;9.458;2022-10-29T08:18:22;16.58;;;6.43;;
21675;SDS011;10999;51.332;9.458;2022-10-29T08:20:49;15.20;;;5.78;;
21675;SDS011;10999;51.332;9.458;2022-10-29T08:23:16;14.18;;;6.72;;
21675;SDS011;10999;51.332;9.458;2022-10-29T08:25:43;13.30;;;5.60;;
21675;SDS011;10999;51.332;9.458;2022-10-29T08:28:13;15.43;;;5.78;;
21675;SDS011;10999;51.332;9.458;2022-10-29T08:30:41;14.73;;;5.57;;
21675;SDS011;10999;51.332;9.458;2022-10-29T08:33:09;12.75;;;5.97;;
21675;SDS011;10999;51.332;9.458;2022-10-29T08:35:36;15.48;;;6.10;;
21675;SDS011;10999;51.332;9.458;2022-10-29T08:38:03;12.20;;;4.82;;
21675;SDS011;10999;51.332;9.458;2022-10-29T08:50:50;13.98;;;5.50;;
21675;SDS011;10999;51.332;9.458;2022-10-29T08:53:23;14.43;;;5.50;;
21675;SDS011;10999;51.332;9.458;2022-10-29T08:55:59;14.18;;;5.85;;
21675;SDS011;10999;51.332;9.458;2022-10-29T08:58:34;21.92;;;6.72;;
21675;SDS011;10999;51.332;9.458;2022-10-29T09:01:11;14.85;;;5.38;;
21675;SDS011;10999;51.332;9.458;2022-10-29T09:03:38;14.93;;;5.28;;
21675;SDS011;10999;51.332;9.458;2022-10-29T09:15:11;16.15;;;5.57;;
21675;SDS011;10999;51.332;9.458;2022-10-29T09:23:24;15.95;;;5.50;;
21675;SDS011;10999;51.332;9.458;2022-10-29T09:26:29;12.20;;;4.80;;
21675;SDS011;10999;51.332;9.458;2022-10-29T09:29:18;14.63;;;5.72;;
21675;SDS011;10999;51.332;9.458;2022-10-29T09:32:17;23.70;;;4.80;;
21675;SDS011;10999;51.332;9.458;2022-10-29T09:34:54;12.75;;;4.80;;
21675;SDS011;10999;51.332;9.458;2022-10-29T09:37:38;13.98;;;3.80;;
21675;SDS011;10999;51.332;9.458;2022-10-29T09:40:36;12.52;;;4.10;;
21675;SDS011;10999;51.332;9.458;2022-10-29T09:43:14;12.88;;;4.15;;
21675;SDS011;10999;51.332;9.458;2022-10-29T09:54:14;10.38;;;4.22;;
21675;SDS011;10999;51.332;9.458;2022-10-29T09:56:41;12.88;;;4.40;;
21675;SDS011;10999;51.332;9.458;2022-10-29T09:59:14;12.25;;;4.65;;
21675;SDS011;10999;51.332;9.458;2022-10-29T10:01:49;15.60;;;4.63;;
21675;SDS011;10999;51.332;9.458;2022-10-29T10:04:19;13.18;;;4.47;;
21675;SDS011;10999;51.332;9.458;2022-10-29T10:07:03;13.18;;;4.97;;
21675;SDS011;10999;51.332;9.458;2022-10-29T10:12:28;13.02;;;4.22;;
21675;SDS011;10999;51.332;9.458;2022-10-29T10:18:00;13.07;;;4.35;;
21675;SDS011;10999;51.332;9.458;2022-10-29T10:23:20;13.95;;;4.60;;
21675;SDS011;10999;51.332;9.458;2022-10-29T10:26:23;12.68;;;4.05;;
21675;SDS011;10999;51.332;9.458;2022-10-29T10:31:40;15.48;;;4.93;;
21675;SDS011;10999;51.332;9.458;2022-10-29T10:34:15;14.23;;;4.60;;
21675;SDS011;10999;51.332;9.458;2022-10-29T10:36:51;12.38;;;4.30;;
21675;SDS011;10999;51.332;9.458;2022-10-29T10:39:26;12.10;;;4.18;;
21675;SDS011;10999;51.332;9.458;2022-10-29T10:44:28;15.98;;;4.88;;
21675;SDS011;10999;51.332;9.458;2022-10-29T10:46:56;11.95;;;4.78;;
21675;SDS011;10999;51.332;9.458;2022-10-29T10:49:30;10.30;;;4.30;;
21675;SDS011;10999;51.332;9.458;2022-10-29T10:52:10;13.43;;;4.18;;
21675;SDS011;10999;51.332;9.458;2022-10-29T10:55:15;14.02;;;4.40;;
21675;SDS011;10999;51.332;9.458;2022-10-29T11:00:36;13.73;;;4.70;;
21675;SDS011;10999;51.332;9.458;2022-10-29T11:03:20;12.27;;;4.65;;
21675;SDS011;10999;51.332;9.458;2022-10-29T11:06:04;12.48;;;4.70;;
21675;SDS011;10999;51.332;9.458;2022-10-29T11:08:45;11.88;;;4.65;;
21675;SDS011;10999;51.332;9.458;2022-10-29T11:11:38;16.05;;;4.10;;
21675;SDS011;10999;51.332;9.458;2022-10-29T11:14:12;13.27;;;4.93;;
21675;SDS011;10999;51.332;9.458;2022-10-29T11:17:02;11.65;;;4.43;;
21675;SDS011;10999;51.332;9.458;2022-10-29T11:19:39;14.30;;;4.93;;
21675;SDS011;10999;51.332;9.458;2022-10-29T11:24:50;17.90;;;4.93;;
21675;SDS011;10999;51.332;9.458;2022-10-29T11:27:47;14.88;;;5.05;;
21675;SDS011;10999;51.332;9.458;2022-10-29T11:30:22;12.93;;;4.55;;
21675;SDS011;10999;51.332;9.458;2022-10-29T11:36:19;13.88;;;5.05;;
21675;SDS011;10999;51.332;9.458;2022-10-29T11:38:38;12.93;;;5.05;;
21675;SDS011;10999;51.332;9.458;2022-10-29T11:41:24;11.95;;;4.90;;
21675;SDS011;10999;51.332;9.458;2022-10-29T11:43:51;13.15;;;5.80;;
21675;SDS011;10999;51.332;9.458;2022-10-29T11:57:22;13.82;;;4.50;;
21675;SDS011;10999;51.332;9.458;2022-10-29T12:14:04;12.35;;;5.15;;
21675;SDS011;10999;51.332;9.458;2022-10-29T12:17:07;12.32;;;5.28;;
21675;SDS011;10999;51.332;9.458;2022-10-29T12:30:32;19.27;;;5.78;;
21675;SDS011;10999;51.332;9.458;2022-10-29T12:33:06;12.52;;;4.97;;
21675;SDS011;10999;51.332;9.458;2022-10-29T12:41:16;18.83;;;5.63;;
21675;SDS011;10999;51.332;9.458;2022-10-29T12:43:47;11.73;;;4.50;;
21675;SDS011;10999;51.332;9.458;2022-10-29T12:46:23;15.75;;;4.90;;
21675;SDS011;10999;51.332;9.458;2022-10-29T12:51:57;15.85;;;4.78;;
21675;SDS011;10999;51.332;9.458;2022-10-29T12:54:38;12.82;;;4.63;;
21675;SDS011;10999;51.332;9.458;2022-10-29T12:59:41;10.85;;;4.50;;
21675;SDS011;10999;51.332;9.458;2022-10-29T13:08:17;16.25;;;6.22;;
21675;SDS011;10999;51.332;9.458;2022-10-29T13:15:41;16.63;;;5.05;;
21675;SDS011;10999;51.332;9.458;2022-10-29T13:18:20;14.95;;;5.85;;
21675;SDS011;10999;51.332;9.458;2022-10-29T13:20:49;17.20;;;5.97;;
21675;SDS011;10999;51.332;9.458;2022-10-29T13:25:50;12.65;;;5.40;;
21675;SDS011;10999;51.332;9.458;2022-10-29T13:30:51;15.88;;;5.03;;
21675;SDS011;10999;51.332;9.458;2022-10-29T13:35:52;11.85;;;4.82;;
21675;SDS011;10999;51.332;9.458;2022-10-29T13:38:45;15.43;;;5.60;;
21675;SDS011;10999;51.332;9.458;2022-10-29T13:41:37;15.45;;;6.45;;
21675;SDS011;10999;51.332;9.458;2022-10-29T13:44:15;15.70;;;5.18;;
21675;SDS011;10999;51.332;9.458;2022-10-29T13:49:50;16.33;;;5.35;;
21675;SDS011;10999;51.332;9.458;2022-10-29T13:52:17;13.15;;;5.00;;
21675;SDS011;10999;51.332;9.458;2022-10-29T13:54:57;11.82;;;5.45;;
21675;SDS011;10999;51.332;9.458;2022-10-29T14:07:55;12.02;;;5.55;;
21675;SDS011;10999;51.332;9.458;2022-10-29T14:10:25;14.10;;;4.57;;
21675;SDS011;10999;51.332;9.458;2022-10-29T14:16:07;14.95;;;5.32;;
21675;SDS011;10999;51.332;9.458;2022-10-29T14:18:42;15.52;;;5.00;;
21675;SDS011;10999;51.332;9.458;2022-10-29T14:21:14;11.50;;;4.75;;
21675;SDS011;10999;51.332;9.458;2022-10-29T14:23:52;22.88;;;4.97;;
21675;SDS011;10999;51.332;9.458;2022-10-29T14:26:37;16.73;;;5.25;;
21675;SDS011;10999;51.332;9.458;2022-10-29T14:29:19;14.15;;;4.88;;
21675;SDS011;10999;51.332;9.458;2022-10-29T14:31:47;11.00;;;4.60;;
21675;SDS011;10999;51.332;9.458;2022-10-29T14:34:33;11.93;;;5.35;;
21675;SDS011;10999;51.332;9.458;2022-10-29T14:37:04;15.32;;;5.07;;
21675;SDS011;10999;51.332;9.458;2022-10-29T14:39:49;12.13;;;4.88;;
21675;SDS011;10999;51.332;9.458;2022-10-29T14:44:59;17.08;;;5.30;;
21675;SDS011;10999;51.332;9.458;2022-10-29T14:47:31;16.60;;;4.95;;
21675;SDS011;10999;51.332;9.458;2022-10-29T14:49:59;12.82;;;5.38;;
21675;SDS011;10999;51.332;9.458;2022-10-29T14:52:31;16.88;;;4.95;;
21675;SDS011;10999;51.332;9.458;2022-10-29T14:55:06;13.57;;;5.40;;
21675;SDS011;10999;51.332;9.458;2022-10-29T14:57:46;17.27;;;5.70;;
21675;SDS011;10999;51.332;9.458;2022-10-29T15:00:24;12.10;;;5.07;;
21675;SDS011;10999;51.332;9.458;2022-10-29T15:02:53;12.13;;;4.47;;
21675;SDS011;10999;51.332;9.458;2022-10-29T15:05:29;14.40;;;4.90;;
21675;SDS011;10999;51.332;9.458;2022-10-29T15:08:04;12.00;;;4.47;;
21675;SDS011;10999;51.332;9.458;2022-10-29T15:13:19;15.57;;;5.60;;
21675;SDS011;10999;51.332;9.458;2022-10-29T15:15:59;14.73;;;5.68;;
21675;SDS011;10999;51.332;9.458;2022-10-29T15:18:30;14.93;;;5.57;;
21675;SDS011;10999;51.332;9.458;2022-10-29T15:20:58;12.65;;;5.30;;
21675;SDS011;10999;51.332;9.458;2022-10-29T15:23:35;16.13;;;6.20;;
21675;SDS011;10999;51.332;9.458;2022-10-29T15:26:10;11.20;;;4.55;;
21675;SDS011;10999;51.332;9.458;2022-10-29T15:28:43;12.52;;;5.35;;
21675;SDS011;10999;51.332;9.458;2022-10-29T15:34:18;18.60;;;5.78;;
21675;SDS011;10999;51.332;9.458;2022-10-29T15:36:52;11.10;;;5.22;;
21675;SDS011;10999;51.332;9.458;2022-10-29T15:39:25;14.88;;;5.07;;
21675;SDS011;10999;51.332;9.458;2022-10-29T15:41:55;13.15;;;5.13;;
21675;SDS011;10999;51.332;9.458;2022-10-29T15:46:57;15.85;;;7.03;;
21675;SDS011;10999;51.332;9.458;2022-10-29T15:49:25;20.92;;;11.05;;
21675;SDS011;10999;51.332;9.458;2022-10-29T15:51:57;13.25;;;5.85;;
21675;SDS011;10999;51.332;9.458;2022-10-29T15:54:26;14.98;;;5.82;;
21675;SDS011;10999;51.332;9.458;2022-10-29T15:56:53;16.17;;;6.60;;
21675;SDS011;10999;51.332;9.458;2022-10-29T15:59:21;17.13;;;6.55;;
21675;SDS011;10999;51.332;9.458;2022-10-29T16:01:49;16.67;;;6.30;;
21675;SDS011;10999;51.332;9.458;2022-10-29T16:04:16;20.38;;;8.40;;
21675;SDS011;10999;51.332;9.458;2022-10-29T16:06:43;21.10;;;12.88;;
21675;SDS011;10999;51.332;9.458;2022-10-29T16:09:13;40.42;;;26.98;;
21675;SDS011;10999;51.332;9.458;2022-10-29T16:11:43;23.42;;;13.90;;
21675;SDS011;10999;51.332;9.458;2022-10-29T16:14:10;18.15;;;6.13;;
21675;SDS011;10999;51.332;9.458;2022-10-29T16:16:36;16.65;;;6.70;;
21675;SDS011;10999;51.332;9.458;2022-10-29T16:19:03;20.58;;;7.30;;
21675;SDS011;10999;51.332;9.458;2022-10-29T16:21:30;20.77;;;9.38;;
21675;SDS011;10999;51.332;9.458;2022-10-29T16:23:56;17.33;;;6.82;;
21675;SDS011;10999;51.332;9.458;2022-10-29T16:26:23;17.20;;;6.95;;
21675;SDS011;10999;51.332;9.458;2022-10-29T16:28:51;21.45;;;7.28;;
21675;SDS011;10999;51.332;9.458;2022-10-29T16:31:19;19.65;;;6.95;;
21675;SDS011;10999;51.332;9.458;2022-10-29T16:33:50;18.10;;;7.15;;
21675;SDS011;10999;51.332;9.458;2022-10-29T16:36:25;14.80;;;6.88;;
21675;SDS011;10999;51.332;9.458;2022-10-29T16:38:52;18.38;;;7.60;;
21675;SDS011;10999;51.332;9.458;2022-10-29T16:41:19;19.73;;;8.13;;
21675;SDS011;10999;51.332;9.458;2022-10-29T16:43:46;21.17;;;7.15;;
21675;SDS011;10999;51.332;9.458;2022-10-29T16:46:13;22.52;;;8.35;;
21675;SDS011;10999;51.332;9.458;2022-10-29T16:48:40;17.77;;;7.53;;
21675;SDS011;10999;51.332;9.458;2022-10-29T16:51:07;24.25;;;9.32;;
21675;SDS011;10999;51.332;9.458;2022-10-29T16:53:34;19.55;;;8.07;;
21675;SDS011;10999;51.332;9.458;2022-10-29T16:56:01;17.55;;;6.72;;
21675;SDS011;10999;51.332;9.458;2022-10-29T16:58:27;19.27;;;6.60;;
21675;SDS011;10999;51.332;9.458;2022-10-29T17:01:04;16.35;;;6.15;;
21675;SDS011;10999;51.332;9.458;2022-10-29T17:03:32;16.13;;;5.20;;
21675;SDS011;10999;51.332;9.458;2022-10-29T17:06:04;15.23;;;5.32;;
21675;SDS011;10999;51.332;9.458;2022-10-29T17:08:33;14.07;;;4.63;;
21675;SDS011;10999;51.332;9.458;2022-10-29T17:11:01;11.90;;;5.07;;
21675;SDS011;10999;51.332;9.458;2022-10-29T17:13:32;11.35;;;4.63;;
21675;SDS011;10999;51.332;9.458;2022-10-29T17:15:59;11.30;;;5.13;;
21675;SDS011;10999;51.332;9.458;2022-10-29T17:18:26;13.55;;;5.15;;
21675;SDS011;10999;51.332;9.458;2022-10-29T17:20:55;11.93;;;4.88;;
21675;SDS011;10999;51.332;9.458;2022-10-29T17:23:23;14.18;;;4.78;;
21675;SDS011;10999;51.332;9.458;2022-10-29T17:25:51;13.25;;;5.00;;
21675;SDS011;10999;51.332;9.458;2022-10-29T17:28:19;12.13;;;5.10;;
21675;SDS011;10999;51.332;9.458;2022-10-29T17:30:46;11.55;;;4.97;;
21675;SDS011;10999;51.332;9.458;2022-10-29T17:33:13;18.33;;;6.13;;
21675;SDS011;10999;51.332;9.458;2022-10-29T17:35:41;13.90;;;5.75;;
21675;SDS011;10999;51.332;9.458;2022-10-29T17:38:09;19.02;;;6.90;;
21675;SDS011;10999;51.332;9.458;2022-10-29T17:40:36;15.85;;;5.60;;
21675;SDS011;10999;51.332;9.458;2022-10-29T17:43:03;14.40;;;6.20;;
21675;SDS011;10999;51.332;9.458;2022-10-29T17:45:29;13.10;;;5.47;;
21675;SDS011;10999;51.332;9.458;2022-10-29T17:47:56;15.70;;;5.63;;